KENL

Centralia Municipal Airport

Centralia, Illinois, USA
METAR KENL 161535Z AUTO 30008KT 10SM CLR 04/00 A3009 RMK AO2 T00370003
Observed Flight Rules
Nov-16 @ 15:35 UTC (31 minutes ago) Visual Flight Rules
Wind Visibility Clouds
300° at 8 knots 10 miles
  • Clear skies
Temperatures Readings
Current 4°C / 39°F
Dewpoint 0°C / 32°F
Humidity 75%
Altimeter 30.09" Hg
Pressure 1019 hPa
Elevation 163
METAR KENL 161535Z AUTO 30008KT 10SM CLR 04/00 A3009 RMK AO2 T00370003
Observed Flight Rules
Nov-16 @ 15:35 UTC
(31 minutes ago)
VFR
Wind Visibility
300° at 8 knots 10 miles
Clouds
  • Clear skies
Temperature Dewpoint
4°C / 39°F 0°C / 32°F
Humidity Altimeter Pressure
75% 30.09" Hg 1019 hPa